Time;durP1;ratioP1;P1;durP2;ratioP2;P2;SDS_P1;SDS_P2;PMS_P1;PMS_P2;Temp;Humidity;BMP_temperature;BMP_pressure;BME280_temperature;BME280_humidity;BME280_pressure;Samples;Min_cycle;Max_cycle;Signal;HPM_P1;HPM_P2
2021/03/26 00:01:40;;;;;;;94.30;47.80;;;6.00;99.90;;;;;;4946848;28;20045;-77
2021/03/26 00:04:07;;;;;;;93.38;47.38;;;6.10;99.90;;;;;;4973726;28;20050;-77
2021/03/26 00:06:38;;;;;;;95.03;48.33;;;6.10;99.90;;;;;;4974714;28;20042;-78
2021/03/26 00:09:06;;;;;;;106.25;48.30;;;6.00;99.90;;;;;;4944933;28;20058;-78
2021/03/26 00:11:34;;;;;;;102.47;46.45;;;5.90;99.90;;;;;;4967560;28;20051;-77
2021/03/26 00:14:01;;;;;;;99.55;46.08;;;5.90;99.90;;;;;;4959439;28;20058;-77
2021/03/26 00:16:27;;;;;;;99.63;47.25;;;5.90;99.90;;;;;;4971467;28;20128;-75
2021/03/26 00:18:54;;;;;;;99.93;49.90;;;5.80;99.90;;;;;;4965662;28;20073;-77
2021/03/26 00:21:22;;;;;;;94.75;45.80;;;5.80;99.90;;;;;;4971594;28;20042;-77
2021/03/26 00:23:50;;;;;;;89.78;44.97;;;5.80;99.90;;;;;;4968526;28;20133;-77
2021/03/26 00:26:17;;;;;;;92.55;45.63;;;5.80;99.90;;;;;;4970254;28;20046;-77
2021/03/26 00:28:43;;;;;;;91.75;46.58;;;5.60;99.90;;;;;;4938351;28;20082;-77
2021/03/26 00:31:10;;;;;;;94.30;45.55;;;5.60;99.90;;;;;;4944041;28;20675;-77
2021/03/26 00:33:36;;;;;;;99.90;45.80;;;5.70;99.90;;;;;;4971758;28;20221;-77
2021/03/26 00:36:04;;;;;;;91.53;44.35;;;5.50;99.90;;;;;;4956729;28;20598;-77
2021/03/26 00:38:30;;;;;;;96.88;44.17;;;5.50;99.90;;;;;;4987489;28;20116;-76
2021/03/26 00:40:57;;;;;;;96.78;46.42;;;5.60;99.90;;;;;;4920538;28;20113;-78
2021/03/26 00:43:23;;;;;;;84.57;42.05;;;5.70;99.90;;;;;;4938303;28;20105;-77
2021/03/26 00:45:51;;;;;;;97.80;45.60;;;5.60;99.90;;;;;;4941064;28;20057;-76
2021/03/26 00:48:19;;;;;;;93.40;47.25;;;5.50;99.90;;;;;;4932350;28;20066;-77
2021/03/26 00:50:50;;;;;;;103.43;46.95;;;5.30;99.90;;;;;;4970598;28;20141;-77
2021/03/26 00:53:25;;;;;;;105.60;47.67;;;5.30;99.90;;;;;;4970292;28;20599;-76
2021/03/26 00:55:52;;;;;;;119.63;50.38;;;5.20;99.90;;;;;;4952255;28;20074;-77
2021/03/26 00:58:19;;;;;;;125.85;51.47;;;5.20;99.90;;;;;;4937300;28;20070;-78
2021/03/26 01:00:46;;;;;;;118.05;51.40;;;5.30;99.90;;;;;;4938118;28;20053;-78
2021/03/26 01:03:15;;;;;;;104.47;50.10;;;5.40;99.90;;;;;;4968256;28;20050;-77
2021/03/26 01:05:46;;;;;;;116.93;50.97;;;5.40;99.90;;;;;;4987779;28;20054;-77
2021/03/26 01:08:13;;;;;;;115.40;52.42;;;5.40;99.90;;;;;;4955331;28;20058;-79
2021/03/26 01:10:45;;;;;;;117.07;50.67;;;5.50;99.90;;;;;;4985642;28;20506;-76
2021/03/26 02:59:05;;;;;;;116.38;52.03;;;5.80;99.90;;;;;;5000778;28;20042;-76
2021/03/26 03:01:43;;;;;;;144.13;55.90;;;5.70;99.90;;;;;;4993464;28;20050;-76
2021/03/26 03:04:23;;;;;;;135.02;57.60;;;5.80;99.90;;;;;;5024748;28;20041;-76
2021/03/26 03:07:15;;;;;;;157.93;59.67;;;5.70;99.90;;;;;;5013204;28;20099;-77
2021/03/26 03:10:22;;;;;;;128.43;55.70;;;5.70;99.90;;;;;;5011341;28;20425;-78
2021/03/26 03:12:53;;;;;;;136.00;56.30;;;5.70;99.90;;;;;;4995677;28;20145;-77
2021/03/26 03:15:27;;;;;;;145.60;61.67;;;5.60;99.90;;;;;;4995474;28;20045;-78
2021/03/26 03:18:17;;;;;;;144.77;62.28;;;5.80;99.90;;;;;;5033834;28;20050;-77
2021/03/26 03:21:02;;;;;;;129.02;56.42;;;5.80;99.90;;;;;;5013084;28;20037;-76
2021/03/26 03:23:53;;;;;;;129.70;55.50;;;5.70;99.90;;;;;;5011578;28;20056;-78
2021/03/26 03:26:36;;;;;;;140.70;57.90;;;5.70;99.90;;;;;;5013625;28;20054;-78
2021/03/26 03:29:27;;;;;;;120.47;52.63;;;5.60;99.90;;;;;;5014414;28;20057;-78
2021/03/26 03:32:33;;;;;;;119.10;53.17;;;5.60;99.90;;;;;;5009651;28;20168;-76
2021/03/26 03:35:33;;;;;;;122.65;54.78;;;5.60;99.90;;;;;;5005568;28;20049;-77
2021/03/26 03:38:28;;;;;;;142.93;58.58;;;5.50;99.90;;;;;;4997994;28;20049;-76
2021/03/26 03:41:08;;;;;;;135.77;56.10;;;5.50;99.90;;;;;;5029350;28;20040;-75
2021/03/26 03:44:01;;;;;;;126.13;55.63;;;5.40;99.90;;;;;;5018037;28;20536;-76
2021/03/26 03:46:38;;;;;;;129.48;53.28;;;5.40;99.90;;;;;;5002495;28;20053;-76
2021/03/26 03:49:47;;;;;;;138.25;56.53;;;5.40;99.90;;;;;;5035930;28;20051;-76
2021/03/26 03:52:33;;;;;;;139.90;56.75;;;5.40;99.90;;;;;;5025652;28;20087;-76
2021/03/26 03:55:14;;;;;;;155.45;60.00;;;5.50;99.90;;;;;;5012960;28;20047;-76
2021/03/26 03:57:51;;;;;;;140.65;56.67;;;5.50;99.90;;;;;;5011093;28;20049;-75
2021/03/26 04:00:31;;;;;;;130.35;57.83;;;5.40;99.90;;;;;;5011087;28;20550;-75
2021/03/26 04:03:15;;;;;;;132.82;56.97;;;5.40;99.90;;;;;;5001345;28;20049;-75
2021/03/26 04:06:08;;;;;;;167.55;62.25;;;5.60;99.90;;;;;;5025508;28;20130;-76
2021/03/26 04:08:42;;;;;;;148.20;58.17;;;5.70;99.90;;;;;;5004743;28;20056;-76
2021/03/26 04:11:28;;;;;;;150.85;61.05;;;5.60;99.90;;;;;;4991537;28;20048;-76
2021/03/26 04:14:18;;;;;;;151.10;59.30;;;5.50;99.90;;;;;;4991838;28;20773;-77
2021/03/26 04:16:51;;;;;;;138.27;56.42;;;5.40;99.90;;;;;;4986450;28;20679;-77
2021/03/26 04:19:23;;;;;;;138.77;56.20;;;5.40;99.90;;;;;;5001275;28;20033;-77
2021/03/26 04:22:02;;;;;;;140.98;55.33;;;5.40;99.90;;;;;;5026021;28;20048;-77
2021/03/26 04:25:03;;;;;;;158.10;56.53;;;5.40;99.90;;;;;;5011125;28;20488;-76
2021/03/26 04:27:42;;;;;;;150.60;57.75;;;5.50;99.90;;;;;;5018797;28;20057;-76
2021/03/26 04:30:22;;;;;;;154.48;60.58;;;5.40;99.90;;;;;;5027154;28;20053;-76
2021/03/26 04:32:56;;;;;;;148.60;57.53;;;5.30;99.90;;;;;;5005846;28;20096;-78
2021/03/26 04:35:26;;;;;;;152.32;61.72;;;5.30;99.90;;;;;;5026620;28;20065;-75
2021/03/26 04:38:16;;;;;;;148.82;61.70;;;5.30;99.90;;;;;;5005700;28;20049;-76
2021/03/26 04:40:56;;;;;;;142.10;56.20;;;5.20;99.90;;;;;;5025097;28;20045;-77
2021/03/26 04:43:35;;;;;;;142.50;57.60;;;5.20;99.90;;;;;;5010449;28;20080;-77
2021/03/26 04:46:28;;;;;;;138.43;57.25;;;5.20;99.90;;;;;;4992220;28;20045;-77
2021/03/26 04:49:37;;;;;;;124.40;54.97;;;5.20;99.90;;;;;;5022230;28;20140;-77
2021/03/26 04:52:11;;;;;;;136.55;56.15;;;5.10;99.90;;;;;;4991973;28;20049;-77
2021/03/26 04:55:01;;;;;;;141.43;58.28;;;5.20;99.90;;;;;;5020798;28;20045;-77
2021/03/26 04:58:04;;;;;;;139.95;57.13;;;5.10;99.90;;;;;;5035239;28;20142;-77
2021/03/26 05:00:58;;;;;;;150.93;59.63;;;5.00;99.90;;;;;;5016723;28;20444;-76
2021/03/26 05:03:34;;;;;;;142.30;61.65;;;5.10;99.90;;;;;;5015012;28;20029;-77
2021/03/26 05:06:10;;;;;;;152.23;61.97;;;5.00;99.90;;;;;;5004206;28;20448;-77
2021/03/26 05:08:44;;;;;;;148.20;59.72;;;4.90;99.90;;;;;;5000629;28;20049;-78
2021/03/26 05:11:33;;;;;;;138.93;56.58;;;4.80;99.90;;;;;;5019104;28;20052;-77
2021/03/26 05:14:07;;;;;;;147.38;57.72;;;4.80;99.90;;;;;;5001260;28;20056;-77
2021/03/26 05:17:23;;;;;;;144.07;56.97;;;4.90;99.90;;;;;;4997374;28;20046;-77
2021/03/26 05:20:21;;;;;;;167.85;58.42;;;4.90;99.90;;;;;;4964121;28;20141;-76
2021/03/26 05:23:40;;;;;;;172.07;59.85;;;4.60;99.90;;;;;;4941733;28;20102;-77
2021/03/26 05:26:36;;;;;;;186.95;60.50;;;4.60;99.90;;;;;;5007608;28;20271;-77
2021/03/26 05:29:17;;;;;;;177.68;58.90;;;4.70;99.90;;;;;;5008759;28;20532;-76
2021/03/26 05:32:01;;;;;;;170.45;56.95;;;4.70;99.90;;;;;;5004776;28;20054;-77
2021/03/26 05:35:18;;;;;;;178.13;57.97;;;4.70;99.90;;;;;;5009914;28;20563;-77
2021/03/26 05:38:11;;;;;;;180.02;55.20;;;4.70;99.90;;;;;;5020038;28;20398;-76
2021/03/26 05:41:39;;;;;;;171.90;56.30;;;4.70;99.90;;;;;;5024267;28;20049;-77
2021/03/26 05:44:37;;;;;;;152.38;51.78;;;4.70;99.90;;;;;;5004286;28;20053;-77
2021/03/26 05:47:21;;;;;;;151.93;51.22;;;4.60;99.90;;;;;;4998661;28;20042;-77
2021/03/26 05:50:28;;;;;;;158.95;53.78;;;4.40;99.90;;;;;;4985863;28;20203;-77
2021/03/26 05:53:15;;;;;;;156.35;53.85;;;4.50;99.90;;;;;;4996566;28;20513;-77
2021/03/26 05:56:23;;;;;;;138.68;50.10;;;4.30;99.90;;;;;;5019862;28;20052;-77
2021/03/26 05:59:04;;;;;;;163.10;51.85;;;4.30;99.90;;;;;;5012911;28;20137;-78
2021/03/26 06:01:48;;;;;;;150.55;52.30;;;4.20;99.90;;;;;;5019348;28;20046;-76
2021/03/26 06:05:01;;;;;;;165.57;54.92;;;4.10;99.90;;;;;;5006344;28;20061;-77
2021/03/26 06:08:05;;;;;;;194.90;60.15;;;4.30;99.90;;;;;;5037521;28;20053;-77
2021/03/26 06:11:10;;;;;;;150.18;52.45;;;4.40;99.90;;;;;;5014323;28;20568;-77
2021/03/26 06:14:25;;;;;;;150.20;52.55;;;4.30;99.90;;;;;;5009345;28;20136;-76
2021/03/26 06:17:25;;;;;;;171.02;56.10;;;4.30;99.90;;;;;;4993579;28;20060;-77
2021/03/26 06:20:36;;;;;;;154.57;52.67;;;4.30;99.90;;;;;;5003545;28;20057;-77
2021/03/26 06:23:52;;;;;;;120.63;46.35;;;4.30;99.90;;;;;;5014964;28;20133;-77
2021/03/26 06:26:58;;;;;;;142.25;50.17;;;4.40;99.90;;;;;;5000205;28;20345;-77
2021/03/26 06:29:33;;;;;;;148.13;52.78;;;4.40;99.90;;;;;;5022972;28;20065;-77
2021/03/26 06:32:37;;;;;;;151.07;54.75;;;4.60;99.90;;;;;;5006236;28;20077;-77
2021/03/26 06:35:48;;;;;;;145.55;53.85;;;4.60;99.90;;;;;;5019382;28;20120;-78
2021/03/26 06:38:24;;;;;;;131.52;51.22;;;4.80;99.90;;;;;;5008257;28;20141;-77
2021/03/26 06:41:03;;;;;;;141.80;53.28;;;4.90;99.90;;;;;;5008593;28;20046;-78
2021/03/26 06:43:46;;;;;;;144.55;54.40;;;5.00;99.90;;;;;;5011770;28;20048;-77
2021/03/26 06:46:45;;;;;;;140.27;54.75;;;5.20;99.90;;;;;;5024993;28;20565;-78
2021/03/26 06:49:32;;;;;;;121.00;51.50;;;5.40;99.90;;;;;;5008406;28;20088;-76
2021/03/26 06:52:20;;;;;;;129.00;51.35;;;5.70;99.90;;;;;;5029992;28;20599;-75
2021/03/26 06:55:24;;;;;;;93.03;43.88;;;6.00;99.90;;;;;;5024370;28;20536;-76
2021/03/26 06:58:05;;;;;;;75.03;38.88;;;6.30;99.90;;;;;;5022890;28;20053;-78
2021/03/26 07:01:06;;;;;;;81.55;40.92;;;6.40;99.90;;;;;;5013423;28;20282;-76
2021/03/26 07:04:11;;;;;;;72.10;37.90;;;6.70;99.90;;;;;;5019683;28;20053;-76
2021/03/26 07:06:50;;;;;;;66.40;37.05;;;7.00;99.90;;;;;;4982307;28;20057;-75
2021/03/26 07:09:29;;;;;;;61.78;33.55;;;7.20;99.90;;;;;;4996540;28;20092;-75
2021/03/26 07:12:19;;;;;;;65.07;33.10;;;7.50;99.90;;;;;;5034845;28;20472;-76
2021/03/26 07:15:00;;;;;;;68.38;37.03;;;7.70;99.90;;;;;;5017835;28;20077;-75
2021/03/26 07:18:01;;;;;;;65.80;35.92;;;7.90;99.90;;;;;;4998322;28;20269;-76
2021/03/26 07:20:49;;;;;;;59.85;34.70;;;8.20;99.90;;;;;;5004741;28;20190;-77
2021/03/26 07:23:49;;;;;;;65.38;35.85;;;8.40;99.90;;;;;;5015261;28;20053;-77
2021/03/26 07:26:41;;;;;;;56.70;35.53;;;8.60;99.90;;;;;;5007507;28;20069;-76
2021/03/26 07:29:30;;;;;;;56.25;35.42;;;8.70;99.90;;;;;;4991504;28;20085;-77
2021/03/26 07:31:56;;;;;;;55.15;33.72;;;8.80;99.90;;;;;;5033960;28;20408;-76
2021/03/26 07:34:59;;;;;;;56.95;35.63;;;8.90;99.90;;;;;;5026748;28;20096;-77
2021/03/26 07:37:54;;;;;;;56.00;35.92;;;9.30;99.90;;;;;;5020808;28;20406;-77
2021/03/26 07:40:44;;;;;;;49.17;35.30;;;9.50;99.90;;;;;;5005991;28;20046;-77
2021/03/26 07:43:32;;;;;;;51.88;36.67;;;9.80;99.90;;;;;;5012881;28;20424;-77
2021/03/26 07:46:20;;;;;;;45.05;32.92;;;10.00;99.90;;;;;;5007831;28;20414;-77
2021/03/26 07:49:04;;;;;;;46.65;30.27;;;10.30;99.90;;;;;;4989915;28;20449;-78
2021/03/26 07:51:49;;;;;;;51.13;35.30;;;10.50;99.90;;;;;;4984039;28;20141;-77
2021/03/26 07:54:39;;;;;;;46.67;32.88;;;10.70;99.90;;;;;;5013400;28;20054;-76
2021/03/26 07:57:17;;;;;;;45.90;33.30;;;10.70;99.90;;;;;;5006788;28;20101;-77
2021/03/26 08:00:04;;;;;;;49.03;34.55;;;10.80;99.90;;;;;;5006894;28;20050;-77
2021/03/26 08:02:59;;;;;;;44.22;33.67;;;11.00;99.90;;;;;;5007599;28;20146;-77
2021/03/26 08:05:55;;;;;;;45.42;33.47;;;11.30;99.90;;;;;;5005066;28;20084;-78
2021/03/26 08:09:10;;;;;;;44.15;35.15;;;11.60;99.90;;;;;;5001861;28;20046;-76
2021/03/26 08:11:48;;;;;;;44.63;36.47;;;11.70;99.90;;;;;;4978971;28;20494;-76
2021/03/26 08:15:02;;;;;;;44.90;34.92;;;11.60;99.90;;;;;;5020732;28;20586;-76
2021/03/26 08:17:58;;;;;;;40.28;34.30;;;11.80;99.90;;;;;;5007886;28;20053;-78
2021/03/26 08:20:38;;;;;;;44.30;34.72;;;11.80;99.90;;;;;;5020819;28;20073;-77
2021/03/26 08:23:44;;;;;;;48.55;36.38;;;11.90;99.90;;;;;;5008865;28;20122;-75
2021/03/26 08:26:33;;;;;;;36.05;32.15;;;11.90;99.90;;;;;;4987910;28;20080;-77
2021/03/26 08:29:25;;;;;;;36.67;31.95;;;12.10;99.90;;;;;;4988322;28;20057;-78
2021/03/26 08:32:23;;;;;;;36.83;31.98;;;12.20;99.90;;;;;;5025406;28;20050;-77
2021/03/26 08:35:12;;;;;;;33.90;29.92;;;12.10;99.90;;;;;;5015321;28;20045;-77
2021/03/26 08:38:00;;;;;;;43.42;35.00;;;12.00;99.90;;;;;;4991741;28;20501;-78
2021/03/26 08:40:40;;;;;;;34.53;30.27;;;12.00;99.90;;;;;;5007369;28;20099;-77
2021/03/26 08:43:09;;;;;;;35.78;30.55;;;12.10;99.90;;;;;;5021985;28;20049;-77
2021/03/26 08:45:42;;;;;;;39.95;33.00;;;12.10;99.90;;;;;;5005869;28;20121;-76
2021/03/26 08:48:46;;;;;;;41.60;35.67;;;12.20;99.90;;;;;;5024398;28;20148;-77
2021/03/26 08:51:32;;;;;;;38.72;32.88;;;12.20;99.90;;;;;;5019258;28;20053;-76
2021/03/26 08:54:36;;;;;;;37.28;29.77;;;12.00;99.90;;;;;;4987360;28;20107;-77
2021/03/26 08:57:33;;;;;;;41.15;33.15;;;12.00;99.90;;;;;;5023598;28;20751;-77
2021/03/26 09:00:24;;;;;;;34.80;31.00;;;12.00;99.90;;;;;;5019827;28;20138;-76
2021/03/26 09:03:05;;;;;;;38.78;34.80;;;12.10;99.90;;;;;;4997509;28;20476;-77
2021/03/26 09:06:40;;;;;;;38.35;30.70;;;12.20;99.90;;;;;;5002845;28;20045;-76
2021/03/26 09:10:00;;;;;;;34.45;30.83;;;12.60;99.90;;;;;;4995504;28;20046;-79
2021/03/26 09:12:39;;;;;;;34.70;30.98;;;12.90;99.90;;;;;;5012649;28;20133;-78
2021/03/26 09:15:33;;;;;;;36.88;33.10;;;13.00;99.90;;;;;;5003994;28;20054;-77
2021/03/26 09:18:19;;;;;;;35.13;31.35;;;13.10;99.90;;;;;;5009508;28;20042;-77
2021/03/26 09:20:56;;;;;;;;;;;13.40;99.90;;;;;;4998065;28;20216;-75
2021/03/26 09:23:48;;;;;;;32.42;28.90;;;13.40;99.90;;;;;;4991462;28;19925;-77
2021/03/26 09:26:48;;;;;;;34.30;30.50;;;13.20;99.90;;;;;;5024150;28;20503;-76
2021/03/26 09:29:40;;;;;;;33.45;30.08;;;13.30;99.90;;;;;;4990042;28;20140;-75
2021/03/26 09:32:34;;;;;;;35.67;30.90;;;13.70;99.90;;;;;;4998032;28;20390;-77
2021/03/26 09:35:35;;;;;;;33.90;30.35;;;14.00;99.90;;;;;;5013227;28;20053;-76
2021/03/26 09:38:14;;;;;;;32.03;28.73;;;14.00;99.90;;;;;;4985283;28;20363;-76
2021/03/26 09:41:10;;;;;;;29.80;26.10;;;14.00;99.90;;;;;;5004248;28;20463;-76
2021/03/26 09:44:04;;;;;;;31.33;28.05;;;14.00;99.90;;;;;;5002749;28;20136;-77
2021/03/26 09:46:47;;;;;;;31.38;26.77;;;13.70;99.90;;;;;;4996752;28;20616;-76
2021/03/26 09:49:35;;;;;;;30.88;27.77;;;13.70;99.90;;;;;;5016471;28;20076;-76
2021/03/26 09:52:07;;;;;;;31.05;27.48;;;13.50;99.90;;;;;;5005944;28;20126;-77
2021/03/26 09:54:39;;;;;;;30.50;27.42;;;13.40;99.90;;;;;;5004840;28;20617;-77
2021/03/26 09:57:33;;;;;;;30.27;27.05;;;13.60;99.90;;;;;;5011263;28;20117;-78
2021/03/26 10:00:48;;;;;;;25.85;23.60;;;13.90;99.90;;;;;;4969426;28;20056;-78
2021/03/26 10:03:45;;;;;;;32.55;29.35;;;13.80;99.90;;;;;;4975414;28;20051;-76
2021/03/26 10:06:18;;;;;;;28.88;26.08;;;13.90;99.90;;;;;;4992411;28;20107;-76
2021/03/26 10:11:46;;;;;;;29.15;26.55;;;14.50;99.90;;;;;;4995271;28;20054;-77
2021/03/26 10:14:17;;;;;;;26.05;23.75;;;14.70;99.90;;;;;;4945244;28;20178;-76
2021/03/26 10:16:53;;;;;;;26.23;23.83;;;14.90;99.90;;;;;;5009616;28;20576;-76
2021/03/26 10:19:40;;;;;;;25.95;23.58;;;14.70;99.90;;;;;;5020955;28;20050;-77
2021/03/26 10:22:39;;;;;;;26.77;24.48;;;14.70;99.90;;;;;;4969157;28;20467;-77
2021/03/26 10:25:13;;;;;;;26.05;23.58;;;14.60;99.90;;;;;;4981362;28;20112;-76
2021/03/26 10:28:12;;;;;;;27.42;24.95;;;14.80;99.90;;;;;;4999762;28;20046;-78
2021/03/26 10:30:41;;;;;;;26.90;24.42;;;14.90;99.90;;;;;;4997711;28;20080;-76
2021/03/26 10:33:14;;;;;;;31.77;28.80;;;14.80;99.90;;;;;;4967163;28;20169;-77
2021/03/26 10:36:05;;;;;;;25.55;23.25;;;14.80;99.90;;;;;;4973574;28;20657;-76
2021/03/26 10:38:50;;;;;;;23.88;21.50;;;14.90;99.90;;;;;;4979327;28;20116;-78
2021/03/26 10:41:49;;;;;;;21.50;19.67;;;14.50;99.90;;;;;;4998552;28;20132;-78
2021/03/26 10:44:40;;;;;;;21.27;19.48;;;14.50;99.90;;;;;;5003711;28;20061;-76
2021/03/26 10:47:29;;;;;;;20.48;18.67;;;14.70;99.90;;;;;;5005759;28;20041;-77
2021/03/26 10:50:01;;;;;;;21.45;19.85;;;15.00;99.90;;;;;;5000972;28;20050;-78
2021/03/26 10:52:33;;;;;;;20.20;18.50;;;15.10;99.90;;;;;;5008332;28;20042;-77
2021/03/26 10:55:10;;;;;;;21.52;19.83;;;15.40;99.90;;;;;;5003339;28;20501;-76
2021/03/26 10:57:43;;;;;;;19.70;18.10;;;15.50;99.90;;;;;;5002651;28;20656;-77
2021/03/26 11:00:22;;;;;;;18.90;17.60;;;15.60;99.90;;;;;;5020231;28;20664;-76
2021/03/26 11:02:51;;;;;;;21.92;20.13;;;15.90;99.90;;;;;;5003808;28;20116;-76
2021/03/26 11:05:27;;;;;;;19.88;18.50;;;15.70;99.90;;;;;;5013298;28;20054;-75
2021/03/26 11:08:00;;;;;;;19.35;17.88;;;15.50;99.90;;;;;;5002528;28;20085;-76
2021/03/26 11:10:53;;;;;;;21.42;19.83;;;15.40;99.90;;;;;;5007755;28;20295;-77
2021/03/26 11:13:42;;;;;;;23.20;21.27;;;15.40;99.90;;;;;;5008034;28;20750;-76
2021/03/26 11:16:16;;;;;;;23.38;21.42;;;15.60;99.90;;;;;;4997927;28;20132;-77
2021/03/26 11:19:03;;;;;;;24.25;22.17;;;15.50;99.90;;;;;;5014915;28;20038;-77
2021/03/26 11:21:47;;;;;;;25.25;23.20;;;15.40;99.90;;;;;;5017119;28;20054;-78
2021/03/26 11:24:15;;;;;;;25.33;23.20;;;15.50;99.90;;;;;;5004057;28;20148;-78
2021/03/26 11:27:03;;;;;;;25.52;23.52;;;15.90;99.90;;;;;;5038868;28;20045;-77
2021/03/26 11:29:39;;;;;;;25.17;23.08;;;16.00;99.90;;;;;;4994579;28;20191;-78
2021/03/26 11:32:28;;;;;;;22.92;21.10;;;16.10;99.90;;;;;;5019065;28;20133;-77
2021/03/26 11:35:03;;;;;;;23.90;21.75;;;16.10;99.90;;;;;;4987640;28;20044;-78
2021/03/26 11:38:01;;;;;;;24.30;22.00;;;16.10;99.90;;;;;;5014876;28;20073;-78
2021/03/26 11:40:54;;;;;;;25.13;23.13;;;16.30;99.90;;;;;;4990694;28;20045;-77
2021/03/26 11:43:24;;;;;;;24.15;22.13;;;16.10;99.90;;;;;;5024136;28;20149;-77
2021/03/26 11:46:07;;;;;;;24.85;22.67;;;15.70;99.90;;;;;;5016077;28;20048;-77
2021/03/26 11:48:55;;;;;;;23.60;21.60;;;15.50;99.90;;;;;;5018826;28;20045;-76
2021/03/26 11:51:54;;;;;;;23.58;21.75;;;15.60;99.90;;;;;;5008883;28;20047;-78
2021/03/26 11:54:35;;;;;;;24.17;22.13;;;15.70;99.90;;;;;;4992978;28;20034;-78
2021/03/26 11:57:31;;;;;;;23.75;21.73;;;15.90;99.90;;;;;;5014681;28;20093;-77
2021/03/26 12:00:01;;;;;;;23.02;20.98;;;16.10;99.90;;;;;;4999816;28;20146;-78
2021/03/26 12:02:27;;;;;;;23.83;21.92;;;16.20;99.90;;;;;;5025261;28;20041;-77
2021/03/26 12:05:15;;;;;;;21.45;19.67;;;16.20;99.90;;;;;;5021498;28;20053;-76
2021/03/26 12:08:16;;;;;;;22.38;20.52;;;16.20;99.90;;;;;;5026174;28;20061;-77
2021/03/26 12:10:58;;;;;;;23.20;21.23;;;16.20;99.90;;;;;;5007130;28;20169;-78
2021/03/26 12:13:39;;;;;;;21.80;20.08;;;16.30;99.90;;;;;;5034710;28;20050;-78
2021/03/26 12:16:15;;;;;;;20.20;18.38;;;16.20;99.90;;;;;;5022515;28;20092;-77
2021/03/26 12:19:02;;;;;;;21.30;19.10;;;16.10;99.90;;;;;;4993846;28;20052;-77
2021/03/26 12:21:28;;;;;;;21.10;19.35;;;16.10;99.90;;;;;;4996551;28;20846;-76
2021/03/26 12:24:20;;;;;;;19.85;18.45;;;15.90;99.90;;;;;;4999596;28;20045;-77
2021/03/26 12:27:15;;;;;;;20.77;19.00;;;15.90;99.90;;;;;;5017394;28;20042;-77
2021/03/26 12:30:19;;;;;;;19.75;17.80;;;15.70;99.90;;;;;;5000734;28;20111;-76
2021/03/26 12:33:08;;;;;;;19.63;17.63;;;15.60;99.90;;;;;;5026950;28;20129;-78
2021/03/26 12:35:35;;;;;;;21.67;19.73;;;15.70;99.90;;;;;;4991085;28;20038;-78
2021/03/26 12:38:19;;;;;;;24.67;22.17;;;15.70;99.90;;;;;;5004626;28;20508;-77
2021/03/26 12:41:06;;;;;;;25.30;22.95;;;15.40;99.90;;;;;;4995388;28;20132;-76
2021/03/26 12:43:44;;;;;;;25.65;22.95;;;14.90;99.90;;;;;;5009374;28;20111;-76
2021/03/26 12:46:10;;;;;;;25.52;23.23;;;14.70;99.90;;;;;;5004457;28;20048;-75
2021/03/26 12:48:48;;;;;;;27.35;23.58;;;14.40;99.90;;;;;;5022919;28;20128;-77
2021/03/26 12:51:33;;;;;;;24.55;22.20;;;14.50;99.90;;;;;;5006156;28;20038;-78
2021/03/26 12:54:15;;;;;;;24.57;22.07;;;14.40;99.90;;;;;;5002410;28;20046;-78
2021/03/26 12:56:54;;;;;;;26.02;23.52;;;14.50;99.90;;;;;;5019474;28;20053;-76
2021/03/26 12:59:39;;;;;;;26.10;23.55;;;14.70;99.90;;;;;;5008861;28;20077;-76
2021/03/26 13:03:07;;;;;;;24.70;22.50;;;15.10;99.90;;;;;;5005732;28;20100;-79
2021/03/26 13:05:34;;;;;;;23.08;20.98;;;15.10;99.90;;;;;;4942833;28;20129;-76
2021/03/26 13:08:20;;;;;;;22.30;20.10;;;15.30;99.90;;;;;;5002419;28;20038;-78
2021/03/26 13:11:33;;;;;;;22.58;20.38;;;15.10;99.90;;;;;;5018260;28;20736;-77
2021/03/26 13:14:20;;;;;;;22.80;20.52;;;14.90;99.90;;;;;;4951296;28;20081;-77
2021/03/26 13:16:54;;;;;;;23.83;21.38;;;14.70;99.90;;;;;;4935463;28;20039;-78
2021/03/26 13:19:21;;;;;;;28.67;24.42;;;14.50;99.90;;;;;;4968831;28;20562;-76
2021/03/26 13:22:05;;;;;;;27.70;24.38;;;14.50;99.90;;;;;;5001584;28;20500;-76
2021/03/26 13:24:55;;;;;;;25.33;22.73;;;14.60;99.90;;;;;;5008890;28;20069;-77
2021/03/26 13:27:21;;;;;;;32.42;28.33;;;14.70;99.90;;;;;;5024582;28;20042;-76
2021/03/26 13:30:14;;;;;;;25.15;22.80;;;14.70;99.90;;;;;;5008871;28;20148;-76
2021/03/26 13:32:57;;;;;;;24.25;21.65;;;14.70;99.90;;;;;;4972431;28;20099;-77
2021/03/26 13:35:45;;;;;;;24.63;22.33;;;14.90;99.90;;;;;;4994124;28;20080;-75
2021/03/26 13:38:14;;;;;;;24.98;22.58;;;15.20;99.90;;;;;;5025010;28;20052;-78
2021/03/26 13:40:43;;;;;;;25.05;22.40;;;15.40;99.90;;;;;;4991844;28;20115;-75
2021/03/26 13:43:26;;;;;;;25.33;22.88;;;15.20;99.90;;;;;;5008380;28;20038;-76
2021/03/26 13:46:03;;;;;;;24.80;22.50;;;15.10;99.90;;;;;;4988831;28;20137;-77
2021/03/26 13:48:41;;;;;;;23.63;21.60;;;15.10;99.90;;;;;;5000047;28;20057;-76
2021/03/26 13:51:15;;;;;;;27.92;23.38;;;15.30;99.90;;;;;;5003287;28;20145;-77
2021/03/26 13:54:33;;;;;;;21.75;19.95;;;15.30;99.90;;;;;;4996554;28;20042;-77
2021/03/26 13:57:05;;;;;;;21.60;19.70;;;15.30;99.90;;;;;;4987720;28;20131;-77
2021/03/26 13:59:47;;;;;;;23.20;20.92;;;15.20;99.90;;;;;;4987841;28;20038;-77
2021/03/26 14:02:30;;;;;;;24.63;22.15;;;15.20;99.90;;;;;;4976700;28;20042;-77
2021/03/26 14:05:31;;;;;;;23.05;20.80;;;15.20;99.90;;;;;;5001826;28;20056;-77
2021/03/26 14:08:25;;;;;;;21.55;19.42;;;15.30;99.90;;;;;;4989317;28;20131;-76
2021/03/26 14:11:12;;;;;;;23.58;21.13;;;15.20;99.90;;;;;;4990376;28;20140;-76
2021/03/26 14:13:59;;;;;;;21.67;19.50;;;15.30;99.90;;;;;;5005174;28;20088;-77
2021/03/26 14:16:45;;;;;;;21.98;19.75;;;15.10;99.90;;;;;;5009314;28;20045;-79
2021/03/26 14:19:21;;;;;;;21.27;19.38;;;15.00;99.90;;;;;;4987742;28;20050;-75
2021/03/26 14:22:16;;;;;;;21.02;19.00;;;14.90;99.90;;;;;;5018272;28;20037;-76
2021/03/26 14:24:59;;;;;;;22.27;19.98;;;14.80;99.90;;;;;;5019129;28;20046;-77
2021/03/26 14:27:47;;;;;;;23.75;21.42;;;14.70;99.90;;;;;;5019387;28;20506;-76
2021/03/26 14:30:32;;;;;;;23.38;20.90;;;14.70;99.90;;;;;;4990069;28;20085;-77
2021/03/26 14:33:06;;;;;;;22.75;20.55;;;14.70;99.90;;;;;;5032719;28;20061;-77
2021/03/26 14:35:45;;;;;;;21.80;19.80;;;15.20;99.90;;;;;;5023106;28;20053;-76
2021/03/26 14:38:26;;;;;;;23.35;20.85;;;15.30;99.90;;;;;;5025178;28;20100;-77
2021/03/26 14:41:05;;;;;;;23.25;21.17;;;15.10;99.90;;;;;;4988919;28;20042;-77
2021/03/26 14:43:32;;;;;;;22.52;20.60;;;15.40;99.90;;;;;;4973065;28;20100;-77
2021/03/26 14:46:01;;;;;;;22.02;19.90;;;15.30;99.90;;;;;;5014022;28;20068;-77
2021/03/26 14:49:03;;;;;;;22.02;20.00;;;15.40;99.90;;;;;;5031886;28;20580;-76
2021/03/26 14:51:41;;;;;;;20.65;18.95;;;15.20;99.90;;;;;;4990690;28;20041;-76
2021/03/26 14:54:10;;;;;;;20.40;18.27;;;15.10;99.90;;;;;;5007827;28;20049;-76
2021/03/26 14:56:45;;;;;;;22.95;20.52;;;14.90;99.90;;;;;;4990687;28;20045;-77
2021/03/26 14:59:17;;;;;;;;;;;14.60;99.90;;;;;;4992660;28;20185;-76
2021/03/26 15:01:47;;;;;;;22.13;19.88;;;14.60;99.90;;;;;;5002651;28;19921;-77
2021/03/26 15:04:24;;;;;;;19.73;17.90;;;14.60;99.90;;;;;;5010799;28;20061;-77
2021/03/26 15:07:27;;;;;;;20.52;18.55;;;14.60;99.90;;;;;;5004495;28;20046;-76
2021/03/26 15:10:28;;;;;;;19.95;18.10;;;14.80;99.90;;;;;;4995396;28;20145;-76
2021/03/26 15:13:26;;;;;;;22.58;20.20;;;14.80;99.90;;;;;;5002952;28;20046;-76
2021/03/26 15:16:09;;;;;;;22.48;20.00;;;14.60;99.90;;;;;;5010674;28;20046;-77
2021/03/26 15:18:40;;;;;;;22.88;19.58;;;14.50;99.90;;;;;;5010911;28;20483;-76
2021/03/26 15:21:41;;;;;;;22.25;19.88;;;14.40;99.90;;;;;;5026288;28;20500;-76
2021/03/26 15:24:28;;;;;;;20.75;18.55;;;14.30;99.90;;;;;;5010178;28;20052;-76
2021/03/26 15:27:09;;;;;;;22.70;20.73;;;14.20;99.90;;;;;;5026755;28;20156;-76
2021/03/26 15:29:47;;;;;;;23.10;20.70;;;14.00;99.90;;;;;;5027479;28;20564;-77
2021/03/26 15:32:35;;;;;;;22.25;19.92;;;13.90;99.90;;;;;;4989589;28;20038;-77
2021/03/26 15:35:28;;;;;;;22.55;20.25;;;13.90;99.90;;;;;;4997718;28;20122;-78
2021/03/26 15:38:21;;;;;;;22.27;20.02;;;13.90;99.90;;;;;;4998272;28;20115;-77
2021/03/26 15:41:25;;;;;;;21.15;19.15;;;14.00;99.90;;;;;;5004897;28;20625;-76
2021/03/26 15:44:03;;;;;;;21.73;19.65;;;13.90;99.90;;;;;;4998481;28;20521;-77
2021/03/26 17:31:15;;;;;;;20.65;18.08;;;13.40;99.90;;;;;;5007891;28;20145;-79
2021/03/26 17:34:04;;;;;;;18.95;17.10;;;13.30;99.90;;;;;;4974494;28;20049;-78